You are not logged in, Click here to log in
廈門高崎國際機場XMN / ZSAM 中國福建省廈門島東北端
ICAO: ZSAM Country: 中國福建省廈門島東北端
Latitude: 24.5391 Longitude: 118.134
Total Arrivals: 53 Total Departures: 49
Latest Arrival: CA4539 (ZUUU-ZSAM)Arthur. Kung Latest Departure: AE992 (ZSAM-RCTP)Arthur. Kung
Scenery:
METAR : ZSAM 190300Z VRB02MPS CAVOK 15/04 Q1028 NOSIG

廈門高崎國際機場XMN

You are accessing this site from IP address 35.175.113.29. Virtual Airline. CMS by phpVMS.Website designed by Zumeweb and edited by Theo Bearman.
There is 0 User(s) Online: | and 7 Guest(s) Online.
All information on this site is for fight simulation purposes only. This site is for flight logging for pilots of Virtual Airline&模擬飛行論壇 FlySim only.